sensor_id;sensor_type;location;lat;lon;timestamp;temperature;humidity
9790;DHT22;4934;50.852;8.098;2023-05-10T00:01:07;12.30;99.90
9790;DHT22;4934;50.852;8.098;2023-05-10T00:03:33;12.30;99.90
9790;DHT22;4934;50.852;8.098;2023-05-10T00:05:58;12.30;99.90
9790;DHT22;4934;50.852;8.098;2023-05-10T00:08:24;12.40;99.90
9790;DHT22;4934;50.852;8.098;2023-05-10T00:10:50;12.40;99.90
9790;DHT22;4934;50.852;8.098;2023-05-10T00:13:15;12.30;99.90
9790;DHT22;4934;50.852;8.098;2023-05-10T00:15:41;12.20;99.90
9790;DHT22;4934;50.852;8.098;2023-05-10T00:18:07;12.20;99.90
9790;DHT22;4934;50.852;8.098;2023-05-10T00:20:32;12.20;99.90
9790;DHT22;4934;50.852;8.098;2023-05-10T00:22:58;12.20;99.90
9790;DHT22;4934;50.852;8.098;2023-05-10T00:25:23;12.10;99.90
9790;DHT22;4934;50.852;8.098;2023-05-10T00:27:49;12.10;99.90
9790;DHT22;4934;50.852;8.098;2023-05-10T00:30:15;12.20;99.90
9790;DHT22;4934;50.852;8.098;2023-05-10T00:32:40;12.20;99.90
9790;DHT22;4934;50.852;8.098;2023-05-10T00:35:06;12.20;99.90
9790;DHT22;4934;50.852;8.098;2023-05-10T00:37:32;12.10;99.90
9790;DHT22;4934;50.852;8.098;2023-05-10T00:39:57;12.10;99.90
9790;DHT22;4934;50.852;8.098;2023-05-10T00:42:23;12.10;99.90
9790;DHT22;4934;50.852;8.098;2023-05-10T00:44:49;12.00;99.90
9790;DHT22;4934;50.852;8.098;2023-05-10T00:47:15;12.10;99.90
9790;DHT22;4934;50.852;8.098;2023-05-10T00:49:41;12.10;99.90
9790;DHT22;4934;50.852;8.098;2023-05-10T00:52:07;12.10;99.90
9790;DHT22;4934;50.852;8.098;2023-05-10T00:54:33;12.10;99.90
9790;DHT22;4934;50.852;8.098;2023-05-10T00:56:59;12.10;99.90
9790;DHT22;4934;50.852;8.098;2023-05-10T00:59:24;12.10;99.90
9790;DHT22;4934;50.852;8.098;2023-05-10T01:01:50;12.10;99.90
9790;DHT22;4934;50.852;8.098;2023-05-10T01:04:16;12.10;99.90
9790;DHT22;4934;50.852;8.098;2023-05-10T01:06:43;12.10;99.90
9790;DHT22;4934;50.852;8.098;2023-05-10T01:09:09;12.10;99.90
9790;DHT22;4934;50.852;8.098;2023-05-10T01:11:35;12.10;99.90
9790;DHT22;4934;50.852;8.098;2023-05-10T01:14:02;12.10;99.90
9790;DHT22;4934;50.852;8.098;2023-05-10T01:16:32;12.10;99.90
9790;DHT22;4934;50.852;8.098;2023-05-10T01:18:59;12.10;99.90
9790;DHT22;4934;50.852;8.098;2023-05-10T01:22:10;12.10;99.90
9790;DHT22;4934;50.852;8.098;2023-05-10T01:30:50;12.10;99.90
9790;DHT22;4934;50.852;8.098;2023-05-10T01:43:57;12.20;99.90
9790;DHT22;4934;50.852;8.098;2023-05-10T01:46:38;12.20;99.90
9790;DHT22;4934;50.852;8.098;2023-05-10T01:49:09;12.10;99.90
9790;DHT22;4934;50.852;8.098;2023-05-10T01:51:40;12.20;99.90
9790;DHT22;4934;50.852;8.098;2023-05-10T01:54:09;12.10;99.90
9790;DHT22;4934;50.852;8.098;2023-05-10T01:56:35;12.10;99.90
9790;DHT22;4934;50.852;8.098;2023-05-10T01:59:11;12.10;99.90
9790;DHT22;4934;50.852;8.098;2023-05-10T02:01:38;12.10;99.90
9790;DHT22;4934;50.852;8.098;2023-05-10T02:04:05;12.10;99.90
9790;DHT22;4934;50.852;8.098;2023-05-10T02:06:32;12.10;99.90
9790;DHT22;4934;50.852;8.098;2023-05-10T02:09:01;12.10;99.90
9790;DHT22;4934;50.852;8.098;2023-05-10T02:11:28;12.10;99.90
9790;DHT22;4934;50.852;8.098;2023-05-10T02:13:55;12.00;99.90
9790;DHT22;4934;50.852;8.098;2023-05-10T02:16:23;12.00;99.90
9790;DHT22;4934;50.852;8.098;2023-05-10T02:18:50;12.00;99.90
9790;DHT22;4934;50.852;8.098;2023-05-10T02:21:17;12.00;99.90
9790;DHT22;4934;50.852;8.098;2023-05-10T02:23:45;12.00;99.90
9790;DHT22;4934;50.852;8.098;2023-05-10T02:26:12;12.00;99.90
9790;DHT22;4934;50.852;8.098;2023-05-10T02:28:40;11.90;99.90
9790;DHT22;4934;50.852;8.098;2023-05-10T02:31:07;11.90;99.90
9790;DHT22;4934;50.852;8.098;2023-05-10T02:33:38;12.00;99.90
9790;DHT22;4934;50.852;8.098;2023-05-10T02:36:07;12.00;99.90
9790;DHT22;4934;50.852;8.098;2023-05-10T02:38:33;12.00;99.90
9790;DHT22;4934;50.852;8.098;2023-05-10T02:41:01;12.00;99.90
9790;DHT22;4934;50.852;8.098;2023-05-10T02:43:28;11.90;99.90
9790;DHT22;4934;50.852;8.098;2023-05-10T02:45:55;11.90;99.90
9790;DHT22;4934;50.852;8.098;2023-05-10T02:48:21;11.90;99.90
9790;DHT22;4934;50.852;8.098;2023-05-10T02:50:47;11.90;99.90
9790;DHT22;4934;50.852;8.098;2023-05-10T02:53:20;12.00;99.90
9790;DHT22;4934;50.852;8.098;2023-05-10T02:55:51;12.00;99.90
9790;DHT22;4934;50.852;8.098;2023-05-10T02:58:17;12.00;99.90
9790;DHT22;4934;50.852;8.098;2023-05-10T03:00:45;11.90;99.90
9790;DHT22;4934;50.852;8.098;2023-05-10T03:03:11;12.00;99.90
9790;DHT22;4934;50.852;8.098;2023-05-10T03:05:37;12.10;99.90
9790;DHT22;4934;50.852;8.098;2023-05-10T03:08:02;12.00;99.90
9790;DHT22;4934;50.852;8.098;2023-05-10T03:10:30;12.00;99.90
9790;DHT22;4934;50.852;8.098;2023-05-10T03:16:15;12.00;99.90
9790;DHT22;4934;50.852;8.098;2023-05-10T03:18:42;11.90;99.90
9790;DHT22;4934;50.852;8.098;2023-05-10T03:21:11;11.90;99.90
9790;DHT22;4934;50.852;8.098;2023-05-10T03:23:46;11.90;99.90
9790;DHT22;4934;50.852;8.098;2023-05-10T03:26:24;11.90;99.90
9790;DHT22;4934;50.852;8.098;2023-05-10T03:28:52;11.90;99.90
9790;DHT22;4934;50.852;8.098;2023-05-10T03:31:18;11.90;99.90
9790;DHT22;4934;50.852;8.098;2023-05-10T03:33:48;11.90;99.90
9790;DHT22;4934;50.852;8.098;2023-05-10T03:36:14;11.90;99.90
9790;DHT22;4934;50.852;8.098;2023-05-10T03:38:39;11.90;99.90
9790;DHT22;4934;50.852;8.098;2023-05-10T03:41:05;11.90;99.90
9790;DHT22;4934;50.852;8.098;2023-05-10T03:43:30;11.80;99.90
9790;DHT22;4934;50.852;8.098;2023-05-10T03:45:56;11.80;99.90
9790;DHT22;4934;50.852;8.098;2023-05-10T03:48:22;11.90;99.90
9790;DHT22;4934;50.852;8.098;2023-05-10T03:50:47;11.90;99.90
9790;DHT22;4934;50.852;8.098;2023-05-10T03:53:14;11.90;99.90
9790;DHT22;4934;50.852;8.098;2023-05-10T03:55:40;11.90;99.90
9790;DHT22;4934;50.852;8.098;2023-05-10T03:58:06;11.90;99.90
9790;DHT22;4934;50.852;8.098;2023-05-10T04:00:31;11.90;99.90
9790;DHT22;4934;50.852;8.098;2023-05-10T04:02:58;12.00;99.90
9790;DHT22;4934;50.852;8.098;2023-05-10T04:05:23;12.00;99.90
9790;DHT22;4934;50.852;8.098;2023-05-10T04:07:49;12.00;99.90
9790;DHT22;4934;50.852;8.098;2023-05-10T04:10:15;12.00;99.90
9790;DHT22;4934;50.852;8.098;2023-05-10T04:12:41;12.00;99.90
9790;DHT22;4934;50.852;8.098;2023-05-10T04:15:07;12.00;99.90
9790;DHT22;4934;50.852;8.098;2023-05-10T04:17:33;12.10;99.90
9790;DHT22;4934;50.852;8.098;2023-05-10T04:19:59;12.00;99.90
9790;DHT22;4934;50.852;8.098;2023-05-10T04:22:24;12.00;99.90
9790;DHT22;4934;50.852;8.098;2023-05-10T04:24:50;12.00;99.90
9790;DHT22;4934;50.852;8.098;2023-05-10T04:27:15;12.10;99.90
9790;DHT22;4934;50.852;8.098;2023-05-10T04:29:41;12.00;99.90
9790;DHT22;4934;50.852;8.098;2023-05-10T04:32:07;12.00;99.90
9790;DHT22;4934;50.852;8.098;2023-05-10T04:34:33;12.00;99.90
9790;DHT22;4934;50.852;8.098;2023-05-10T04:36:59;12.10;99.90
9790;DHT22;4934;50.852;8.098;2023-05-10T04:39:25;12.10;99.90
9790;DHT22;4934;50.852;8.098;2023-05-10T04:41:50;12.10;99.90
9790;DHT22;4934;50.852;8.098;2023-05-10T04:44:16;12.10;99.90
9790;DHT22;4934;50.852;8.098;2023-05-10T04:46:41;12.20;99.90
9790;DHT22;4934;50.852;8.098;2023-05-10T04:49:07;12.20;99.90
9790;DHT22;4934;50.852;8.098;2023-05-10T04:51:33;12.20;99.90
9790;DHT22;4934;50.852;8.098;2023-05-10T04:53:58;12.20;99.90
9790;DHT22;4934;50.852;8.098;2023-05-10T04:56:24;12.20;99.90
9790;DHT22;4934;50.852;8.098;2023-05-10T04:58:49;12.20;99.90
9790;DHT22;4934;50.852;8.098;2023-05-10T05:01:15;12.20;99.90
9790;DHT22;4934;50.852;8.098;2023-05-10T05:03:41;12.20;99.90
9790;DHT22;4934;50.852;8.098;2023-05-10T05:06:06;12.20;99.90
9790;DHT22;4934;50.852;8.098;2023-05-10T05:08:32;12.20;99.90
9790;DHT22;4934;50.852;8.098;2023-05-10T05:10:57;12.30;99.90
9790;DHT22;4934;50.852;8.098;2023-05-10T05:13:24;12.20;99.90
9790;DHT22;4934;50.852;8.098;2023-05-10T05:15:50;12.20;99.90
9790;DHT22;4934;50.852;8.098;2023-05-10T05:18:15;12.20;99.90
9790;DHT22;4934;50.852;8.098;2023-05-10T05:20:41;12.20;99.90
9790;DHT22;4934;50.852;8.098;2023-05-10T05:23:07;12.20;99.90
9790;DHT22;4934;50.852;8.098;2023-05-10T05:25:32;12.20;99.90
9790;DHT22;4934;50.852;8.098;2023-05-10T05:27:58;12.30;99.90
9790;DHT22;4934;50.852;8.098;2023-05-10T05:30:23;12.40;99.90
9790;DHT22;4934;50.852;8.098;2023-05-10T05:32:49;12.40;99.90
9790;DHT22;4934;50.852;8.098;2023-05-10T05:35:14;12.50;99.90
9790;DHT22;4934;50.852;8.098;2023-05-10T05:37:40;12.50;99.90
9790;DHT22;4934;50.852;8.098;2023-05-10T05:40:06;12.60;99.90
9790;DHT22;4934;50.852;8.098;2023-05-10T05:42:32;12.60;99.90
9790;DHT22;4934;50.852;8.098;2023-05-10T05:44:57;12.60;99.90
9790;DHT22;4934;50.852;8.098;2023-05-10T05:47:23;12.70;99.90
9790;DHT22;4934;50.852;8.098;2023-05-10T05:49:49;12.70;99.90
9790;DHT22;4934;50.852;8.098;2023-05-10T05:52:14;12.70;99.90
9790;DHT22;4934;50.852;8.098;2023-05-10T05:54:40;12.80;99.90
9790;DHT22;4934;50.852;8.098;2023-05-10T05:57:05;12.80;99.90
9790;DHT22;4934;50.852;8.098;2023-05-10T05:59:31;12.80;99.90
9790;DHT22;4934;50.852;8.098;2023-05-10T06:01:56;12.80;99.90
9790;DHT22;4934;50.852;8.098;2023-05-10T06:04:22;12.80;99.90
9790;DHT22;4934;50.852;8.098;2023-05-10T06:06:48;12.70;99.90
9790;DHT22;4934;50.852;8.098;2023-05-10T06:09:13;12.80;99.90
9790;DHT22;4934;50.852;8.098;2023-05-10T06:11:39;12.90;99.90
9790;DHT22;4934;50.852;8.098;2023-05-10T06:14:04;13.10;99.90
9790;DHT22;4934;50.852;8.098;2023-05-10T06:16:32;13.30;99.90
9790;DHT22;4934;50.852;8.098;2023-05-10T06:18:58;13.40;99.90
9790;DHT22;4934;50.852;8.098;2023-05-10T06:21:23;13.40;99.90
9790;DHT22;4934;50.852;8.098;2023-05-10T06:23:49;13.40;99.90
9790;DHT22;4934;50.852;8.098;2023-05-10T06:26:14;13.50;99.90
9790;DHT22;4934;50.852;8.098;2023-05-10T06:28:40;13.50;99.90
9790;DHT22;4934;50.852;8.098;2023-05-10T06:31:06;13.50;99.90
9790;DHT22;4934;50.852;8.098;2023-05-10T06:33:32;13.70;99.90
9790;DHT22;4934;50.852;8.098;2023-05-10T06:35:58;13.90;99.90
9790;DHT22;4934;50.852;8.098;2023-05-10T06:38:24;13.90;99.90
9790;DHT22;4934;50.852;8.098;2023-05-10T06:40:49;14.10;99.90
9790;DHT22;4934;50.852;8.098;2023-05-10T06:43:15;14.20;99.90
9790;DHT22;4934;50.852;8.098;2023-05-10T06:45:40;14.40;99.90
9790;DHT22;4934;50.852;8.098;2023-05-10T06:48:07;14.30;99.90
9790;DHT22;4934;50.852;8.098;2023-05-10T06:50:32;14.20;99.90
9790;DHT22;4934;50.852;8.098;2023-05-10T06:52:59;14.10;99.90
9790;DHT22;4934;50.852;8.098;2023-05-10T06:55:24;14.30;99.90
9790;DHT22;4934;50.852;8.098;2023-05-10T06:57:50;14.40;99.90
9790;DHT22;4934;50.852;8.098;2023-05-10T07:00:17;14.40;99.90
9790;DHT22;4934;50.852;8.098;2023-05-10T07:02:43;14.40;99.90
9790;DHT22;4934;50.852;8.098;2023-05-10T07:05:09;14.50;99.90
9790;DHT22;4934;50.852;8.098;2023-05-10T07:07:34;14.50;99.90
9790;DHT22;4934;50.852;8.098;2023-05-10T07:10:00;14.40;99.90
9790;DHT22;4934;50.852;8.098;2023-05-10T07:12:26;14.60;99.90
9790;DHT22;4934;50.852;8.098;2023-05-10T07:14:52;14.80;99.90
9790;DHT22;4934;50.852;8.098;2023-05-10T07:17:17;14.70;99.90
9790;DHT22;4934;50.852;8.098;2023-05-10T07:19:43;14.60;99.90
9790;DHT22;4934;50.852;8.098;2023-05-10T07:22:09;14.60;99.90
9790;DHT22;4934;50.852;8.098;2023-05-10T07:24:34;14.70;99.90
9790;DHT22;4934;50.852;8.098;2023-05-10T07:27:00;14.40;99.90
9790;DHT22;4934;50.852;8.098;2023-05-10T07:29:25;14.60;99.90
9790;DHT22;4934;50.852;8.098;2023-05-10T07:31:51;14.90;99.90
9790;DHT22;4934;50.852;8.098;2023-05-10T07:34:16;14.90;99.90
9790;DHT22;4934;50.852;8.098;2023-05-10T07:36:42;15.00;99.90
9790;DHT22;4934;50.852;8.098;2023-05-10T07:39:08;14.90;99.90
9790;DHT22;4934;50.852;8.098;2023-05-10T07:41:33;15.00;99.90
9790;DHT22;4934;50.852;8.098;2023-05-10T07:43:59;15.10;99.90
9790;DHT22;4934;50.852;8.098;2023-05-10T07:46:24;15.10;99.90
9790;DHT22;4934;50.852;8.098;2023-05-10T07:48:50;15.30;99.90
9790;DHT22;4934;50.852;8.098;2023-05-10T07:51:15;15.30;99.90
9790;DHT22;4934;50.852;8.098;2023-05-10T07:53:41;15.40;99.90
9790;DHT22;4934;50.852;8.098;2023-05-10T07:56:27;14.80;99.90
9790;DHT22;4934;50.852;8.098;2023-05-10T07:58:55;14.30;99.90
9790;DHT22;4934;50.852;8.098;2023-05-10T08:01:22;14.40;99.90
9790;DHT22;4934;50.852;8.098;2023-05-10T08:03:48;14.80;99.90
9790;DHT22;4934;50.852;8.098;2023-05-10T08:06:14;15.00;99.90
9790;DHT22;4934;50.852;8.098;2023-05-10T08:08:40;15.10;99.90
9790;DHT22;4934;50.852;8.098;2023-05-10T08:11:06;15.10;99.90
9790;DHT22;4934;50.852;8.098;2023-05-10T08:13:32;15.00;99.90
9790;DHT22;4934;50.852;8.098;2023-05-10T08:15:57;14.90;99.90
9790;DHT22;4934;50.852;8.098;2023-05-10T08:18:23;14.90;99.90
9790;DHT22;4934;50.852;8.098;2023-05-10T08:20:48;14.70;99.90
9790;DHT22;4934;50.852;8.098;2023-05-10T08:23:14;14.40;99.90
9790;DHT22;4934;50.852;8.098;2023-05-10T08:25:40;14.20;99.90
9790;DHT22;4934;50.852;8.098;2023-05-10T08:28:05;13.90;99.90
9790;DHT22;4934;50.852;8.098;2023-05-10T08:30:31;14.00;99.90
9790;DHT22;4934;50.852;8.098;2023-05-10T08:32:57;14.00;99.90
9790;DHT22;4934;50.852;8.098;2023-05-10T08:35:22;14.20;99.90
9790;DHT22;4934;50.852;8.098;2023-05-10T08:37:48;14.20;99.90
9790;DHT22;4934;50.852;8.098;2023-05-10T08:40:14;14.20;99.90
9790;DHT22;4934;50.852;8.098;2023-05-10T08:42:44;14.20;99.90
9790;DHT22;4934;50.852;8.098;2023-05-10T08:45:15;14.20;99.90
9790;DHT22;4934;50.852;8.098;2023-05-10T08:47:41;14.40;99.90
9790;DHT22;4934;50.852;8.098;2023-05-10T08:50:07;14.70;99.90
9790;DHT22;4934;50.852;8.098;2023-05-10T08:52:38;14.40;99.90
9790;DHT22;4934;50.852;8.098;2023-05-10T08:55:05;14.60;99.90
9790;DHT22;4934;50.852;8.098;2023-05-10T08:57:31;14.70;99.90
9790;DHT22;4934;50.852;8.098;2023-05-10T08:59:57;14.70;99.90
9790;DHT22;4934;50.852;8.098;2023-05-10T09:02:25;14.70;99.90
9790;DHT22;4934;50.852;8.098;2023-05-10T09:04:51;15.00;99.90
9790;DHT22;4934;50.852;8.098;2023-05-10T09:07:17;15.00;99.90
9790;DHT22;4934;50.852;8.098;2023-05-10T09:09:42;15.00;99.90
9790;DHT22;4934;50.852;8.098;2023-05-10T09:12:09;15.00;99.90
9790;DHT22;4934;50.852;8.098;2023-05-10T09:14:37;14.90;99.90
9790;DHT22;4934;50.852;8.098;2023-05-10T09:17:04;15.00;99.90
9790;DHT22;4934;50.852;8.098;2023-05-10T09:19:30;15.10;99.90
9790;DHT22;4934;50.852;8.098;2023-05-10T09:21:55;15.20;99.90
9790;DHT22;4934;50.852;8.098;2023-05-10T09:24:25;15.40;99.90
9790;DHT22;4934;50.852;8.098;2023-05-10T09:26:51;15.40;99.90
9790;DHT22;4934;50.852;8.098;2023-05-10T09:29:17;15.50;99.90
9790;DHT22;4934;50.852;8.098;2023-05-10T09:31:48;15.30;99.90
9790;DHT22;4934;50.852;8.098;2023-05-10T09:34:20;15.10;99.90
9790;DHT22;4934;50.852;8.098;2023-05-10T09:36:59;14.60;99.90
9790;DHT22;4934;50.852;8.098;2023-05-10T09:39:38;14.30;99.90
9790;DHT22;4934;50.852;8.098;2023-05-10T09:42:08;14.50;99.90
9790;DHT22;4934;50.852;8.098;2023-05-10T09:44:34;14.80;99.90
9790;DHT22;4934;50.852;8.098;2023-05-10T09:47:01;15.00;99.90
9790;DHT22;4934;50.852;8.098;2023-05-10T09:49:27;15.10;99.90
9790;DHT22;4934;50.852;8.098;2023-05-10T09:52:04;15.00;99.90
9790;DHT22;4934;50.852;8.098;2023-05-10T09:54:30;14.70;99.90
9790;DHT22;4934;50.852;8.098;2023-05-10T09:56:56;14.60;99.90
9790;DHT22;4934;50.852;8.098;2023-05-10T09:59:25;14.40;99.90
9790;DHT22;4934;50.852;8.098;2023-05-10T10:01:52;14.60;99.90
9790;DHT22;4934;50.852;8.098;2023-05-10T10:04:20;14.70;99.90
9790;DHT22;4934;50.852;8.098;2023-05-10T10:06:46;14.50;99.90
9790;DHT22;4934;50.852;8.098;2023-05-10T10:09:23;14.60;99.90
9790;DHT22;4934;50.852;8.098;2023-05-10T10:11:49;14.80;99.90
9790;DHT22;4934;50.852;8.098;2023-05-10T10:14:14;14.90;99.90
9790;DHT22;4934;50.852;8.098;2023-05-10T10:16:41;15.00;99.90
9790;DHT22;4934;50.852;8.098;2023-05-10T10:19:07;15.00;99.90
9790;DHT22;4934;50.852;8.098;2023-05-10T10:21:33;15.10;99.90
9790;DHT22;4934;50.852;8.098;2023-05-10T10:23:58;15.30;99.90
9790;DHT22;4934;50.852;8.098;2023-05-10T10:26:25;15.50;99.90
9790;DHT22;4934;50.852;8.098;2023-05-10T10:31:47;15.90;99.90
9790;DHT22;4934;50.852;8.098;2023-05-10T10:34:25;16.20;99.90
9790;DHT22;4934;50.852;8.098;2023-05-10T10:36:51;16.20;99.90
9790;DHT22;4934;50.852;8.098;2023-05-10T10:39:18;16.30;99.90
9790;DHT22;4934;50.852;8.098;2023-05-10T10:41:55;16.20;99.90
9790;DHT22;4934;50.852;8.098;2023-05-10T10:44:27;16.20;99.90
9790;DHT22;4934;50.852;8.098;2023-05-10T10:47:05;16.10;99.90
9790;DHT22;4934;50.852;8.098;2023-05-10T10:55:12;16.00;99.90
9790;DHT22;4934;50.852;8.098;2023-05-10T10:57:47;16.30;99.90
9790;DHT22;4934;50.852;8.098;2023-05-10T11:00:20;16.60;99.90
9790;DHT22;4934;50.852;8.098;2023-05-10T11:02:46;16.60;99.90
9790;DHT22;4934;50.852;8.098;2023-05-10T11:11:14;16.10;99.90
9790;DHT22;4934;50.852;8.098;2023-05-10T11:13:44;16.60;99.90
9790;DHT22;4934;50.852;8.098;2023-05-10T11:19:03;17.10;99.90
9790;DHT22;4934;50.852;8.098;2023-05-10T11:21:32;17.40;99.90
9790;DHT22;4934;50.852;8.098;2023-05-10T11:24:00;17.70;99.90
9790;DHT22;4934;50.852;8.098;2023-05-10T11:26:33;17.80;99.90
9790;DHT22;4934;50.852;8.098;2023-05-10T11:28:59;17.90;99.90
9790;DHT22;4934;50.852;8.098;2023-05-10T11:31:27;18.00;99.90
9790;DHT22;4934;50.852;8.098;2023-05-10T11:33:56;18.20;99.90
9790;DHT22;4934;50.852;8.098;2023-05-10T11:36:24;18.20;99.90
9790;DHT22;4934;50.852;8.098;2023-05-10T11:38:51;18.10;99.90
9790;DHT22;4934;50.852;8.098;2023-05-10T11:41:18;17.90;99.90
9790;DHT22;4934;50.852;8.098;2023-05-10T11:43:46;17.50;99.90
9790;DHT22;4934;50.852;8.098;2023-05-10T11:46:14;17.10;99.90
9790;DHT22;4934;50.852;8.098;2023-05-10T11:48:41;16.70;99.90
9790;DHT22;4934;50.852;8.098;2023-05-10T11:51:08;16.50;99.90
9790;DHT22;4934;50.852;8.098;2023-05-10T11:53:33;16.40;99.90
9790;DHT22;4934;50.852;8.098;2023-05-10T11:56:07;16.20;99.90
9790;DHT22;4934;50.852;8.098;2023-05-10T11:58:34;16.10;99.90
9790;DHT22;4934;50.852;8.098;2023-05-10T12:01:00;16.10;99.90
9790;DHT22;4934;50.852;8.098;2023-05-10T12:03:27;16.00;99.90
9790;DHT22;4934;50.852;8.098;2023-05-10T12:05:54;16.00;99.90
9790;DHT22;4934;50.852;8.098;2023-05-10T12:08:21;15.80;99.90
9790;DHT22;4934;50.852;8.098;2023-05-10T12:10:47;15.90;99.90
9790;DHT22;4934;50.852;8.098;2023-05-10T12:13:14;15.70;99.90
9790;DHT22;4934;50.852;8.098;2023-05-10T12:15:39;15.60;99.90
9790;DHT22;4934;50.852;8.098;2023-05-10T12:18:05;15.40;99.90
9790;DHT22;4934;50.852;8.098;2023-05-10T12:20:33;15.30;99.90
9790;DHT22;4934;50.852;8.098;2023-05-10T12:22:59;15.10;99.90
9790;DHT22;4934;50.852;8.098;2023-05-10T12:25:34;14.90;99.90
9790;DHT22;4934;50.852;8.098;2023-05-10T12:28:03;15.00;99.90
9790;DHT22;4934;50.852;8.098;2023-05-10T12:30:29;15.10;99.90
9790;DHT22;4934;50.852;8.098;2023-05-10T12:33:15;15.30;99.90
9790;DHT22;4934;50.852;8.098;2023-05-10T12:35:50;15.10;99.90
9790;DHT22;4934;50.852;8.098;2023-05-10T12:40:54;15.20;99.90
9790;DHT22;4934;50.852;8.098;2023-05-10T12:43:19;15.50;99.90
9790;DHT22;4934;50.852;8.098;2023-05-10T12:45:45;15.70;99.90
9790;DHT22;4934;50.852;8.098;2023-05-10T12:48:13;15.80;99.90
9790;DHT22;4934;50.852;8.098;2023-05-10T12:50:39;15.60;99.90
9790;DHT22;4934;50.852;8.098;2023-05-10T12:53:04;15.60;99.90
9790;DHT22;4934;50.852;8.098;2023-05-10T12:55:30;15.40;99.90
9790;DHT22;4934;50.852;8.098;2023-05-10T12:57:56;15.40;99.90
9790;DHT22;4934;50.852;8.098;2023-05-10T13:00:22;15.40;99.90
9790;DHT22;4934;50.852;8.098;2023-05-10T13:02:47;15.10;99.90
9790;DHT22;4934;50.852;8.098;2023-05-10T13:05:13;15.20;99.90
9790;DHT22;4934;50.852;8.098;2023-05-10T13:07:39;15.10;99.90
9790;DHT22;4934;50.852;8.098;2023-05-10T13:10:05;14.90;99.90
9790;DHT22;4934;50.852;8.098;2023-05-10T13:12:31;14.80;99.90
9790;DHT22;4934;50.852;8.098;2023-05-10T13:14:57;15.00;99.90
9790;DHT22;4934;50.852;8.098;2023-05-10T13:17:24;15.10;99.90
9790;DHT22;4934;50.852;8.098;2023-05-10T13:19:50;15.10;99.90
9790;DHT22;4934;50.852;8.098;2023-05-10T13:22:16;15.00;99.90
9790;DHT22;4934;50.852;8.098;2023-05-10T13:24:41;14.90;99.90
9790;DHT22;4934;50.852;8.098;2023-05-10T13:27:07;15.00;99.90
9790;DHT22;4934;50.852;8.098;2023-05-10T13:29:32;15.20;99.90
9790;DHT22;4934;50.852;8.098;2023-05-10T13:31:58;15.10;99.90
9790;DHT22;4934;50.852;8.098;2023-05-10T13:34:24;15.50;99.90
9790;DHT22;4934;50.852;8.098;2023-05-10T13:36:50;15.90;99.90
9790;DHT22;4934;50.852;8.098;2023-05-10T13:39:16;15.80;99.90
9790;DHT22;4934;50.852;8.098;2023-05-10T13:41:42;16.10;99.90
9790;DHT22;4934;50.852;8.098;2023-05-10T13:44:07;16.50;99.90
9790;DHT22;4934;50.852;8.098;2023-05-10T13:46:33;16.10;99.90
9790;DHT22;4934;50.852;8.098;2023-05-10T13:48:58;16.30;99.90
9790;DHT22;4934;50.852;8.098;2023-05-10T13:51:24;16.40;99.90
9790;DHT22;4934;50.852;8.098;2023-05-10T13:53:49;16.40;99.90
9790;DHT22;4934;50.852;8.098;2023-05-10T13:56:15;16.40;99.90
9790;DHT22;4934;50.852;8.098;2023-05-10T13:58:41;16.30;99.90
9790;DHT22;4934;50.852;8.098;2023-05-10T14:01:06;16.40;99.90
9790;DHT22;4934;50.852;8.098;2023-05-10T14:03:32;16.50;99.90
9790;DHT22;4934;50.852;8.098;2023-05-10T14:05:58;16.70;99.90
9790;DHT22;4934;50.852;8.098;2023-05-10T14:08:23;16.80;99.90
9790;DHT22;4934;50.852;8.098;2023-05-10T14:10:49;16.90;99.90
9790;DHT22;4934;50.852;8.098;2023-05-10T14:13:16;17.00;99.90
9790;DHT22;4934;50.852;8.098;2023-05-10T14:15:41;17.00;99.90
9790;DHT22;4934;50.852;8.098;2023-05-10T14:18:07;16.90;99.90
9790;DHT22;4934;50.852;8.098;2023-05-10T14:20:32;17.00;99.90
9790;DHT22;4934;50.852;8.098;2023-05-10T14:22:59;17.20;99.90
9790;DHT22;4934;50.852;8.098;2023-05-10T14:25:25;17.30;99.90
9790;DHT22;4934;50.852;8.098;2023-05-10T14:27:51;17.30;99.90
9790;DHT22;4934;50.852;8.098;2023-05-10T14:30:19;17.30;99.90
9790;DHT22;4934;50.852;8.098;2023-05-10T14:32:45;17.50;99.90
9790;DHT22;4934;50.852;8.098;2023-05-10T14:35:10;17.50;99.90
9790;DHT22;4934;50.852;8.098;2023-05-10T14:37:36;17.60;99.90
9790;DHT22;4934;50.852;8.098;2023-05-10T14:40:02;17.60;99.90
9790;DHT22;4934;50.852;8.098;2023-05-10T14:42:29;17.70;99.90
9790;DHT22;4934;50.852;8.098;2023-05-10T14:44:55;17.80;99.90
9790;DHT22;4934;50.852;8.098;2023-05-10T14:47:20;17.90;99.90
9790;DHT22;4934;50.852;8.098;2023-05-10T14:49:46;18.00;99.90
9790;DHT22;4934;50.852;8.098;2023-05-10T14:52:12;18.00;99.90
9790;DHT22;4934;50.852;8.098;2023-05-10T14:54:37;18.10;99.90
9790;DHT22;4934;50.852;8.098;2023-05-10T14:57:03;18.10;99.90
9790;DHT22;4934;50.852;8.098;2023-05-10T14:59:29;18.10;99.90
9790;DHT22;4934;50.852;8.098;2023-05-10T15:01:55;18.10;99.90
9790;DHT22;4934;50.852;8.098;2023-05-10T15:04:20;18.10;99.90
9790;DHT22;4934;50.852;8.098;2023-05-10T15:06:46;18.20;99.90
9790;DHT22;4934;50.852;8.098;2023-05-10T15:09:12;18.30;99.90
9790;DHT22;4934;50.852;8.098;2023-05-10T15:11:37;18.30;99.90
9790;DHT22;4934;50.852;8.098;2023-05-10T15:14:03;18.30;99.90
9790;DHT22;4934;50.852;8.098;2023-05-10T15:16:28;18.40;99.90
9790;DHT22;4934;50.852;8.098;2023-05-10T15:18:54;18.40;99.90
9790;DHT22;4934;50.852;8.098;2023-05-10T15:21:20;18.60;99.90
9790;DHT22;4934;50.852;8.098;2023-05-10T15:23:45;18.50;99.90
9790;DHT22;4934;50.852;8.098;2023-05-10T15:26:11;18.70;99.90
9790;DHT22;4934;50.852;8.098;2023-05-10T15:28:36;18.90;99.90
9790;DHT22;4934;50.852;8.098;2023-05-10T15:31:02;19.00;99.90
9790;DHT22;4934;50.852;8.098;2023-05-10T15:33:28;19.20;99.90
9790;DHT22;4934;50.852;8.098;2023-05-10T15:35:54;19.30;99.90
9790;DHT22;4934;50.852;8.098;2023-05-10T15:38:20;19.50;99.90
9790;DHT22;4934;50.852;8.098;2023-05-10T15:40:45;19.60;99.90
9790;DHT22;4934;50.852;8.098;2023-05-10T15:43:11;19.60;99.90
9790;DHT22;4934;50.852;8.098;2023-05-10T15:45:36;19.50;99.90
9790;DHT22;4934;50.852;8.098;2023-05-10T15:48:02;19.30;99.90
9790;DHT22;4934;50.852;8.098;2023-05-10T15:50:28;19.30;99.90
9790;DHT22;4934;50.852;8.098;2023-05-10T15:52:53;19.20;99.90
9790;DHT22;4934;50.852;8.098;2023-05-10T15:55:19;19.10;99.90
9790;DHT22;4934;50.852;8.098;2023-05-10T15:57:45;19.00;99.90
9790;DHT22;4934;50.852;8.098;2023-05-10T16:00:11;18.80;99.90
9790;DHT22;4934;50.852;8.098;2023-05-10T16:02:38;18.70;99.90
9790;DHT22;4934;50.852;8.098;2023-05-10T16:05:04;18.60;99.90
9790;DHT22;4934;50.852;8.098;2023-05-10T16:07:30;18.50;99.90
9790;DHT22;4934;50.852;8.098;2023-05-10T16:09:55;18.40;99.90
9790;DHT22;4934;50.852;8.098;2023-05-10T16:12:21;18.10;99.90
9790;DHT22;4934;50.852;8.098;2023-05-10T16:14:47;17.90;99.90
9790;DHT22;4934;50.852;8.098;2023-05-10T16:17:12;17.70;99.90
9790;DHT22;4934;50.852;8.098;2023-05-10T16:19:39;17.60;99.90
9790;DHT22;4934;50.852;8.098;2023-05-10T16:22:05;17.40;99.90
9790;DHT22;4934;50.852;8.098;2023-05-10T16:24:32;17.10;99.90
9790;DHT22;4934;50.852;8.098;2023-05-10T16:26:57;16.70;99.90
9790;DHT22;4934;50.852;8.098;2023-05-10T16:29:23;16.50;99.90
9790;DHT22;4934;50.852;8.098;2023-05-10T16:31:48;16.00;99.90
9790;DHT22;4934;50.852;8.098;2023-05-10T16:34:14;15.80;99.90
9790;DHT22;4934;50.852;8.098;2023-05-10T16:36:40;15.60;99.90
9790;DHT22;4934;50.852;8.098;2023-05-10T16:39:06;15.40;99.90